Terminal Aerodrome Forecast
Issued by NWS

Home | Current Version | Previous Version | Text Only | Print | Product List | Glossary On
Versions: 1 2 3 4 5 6 7 8 9 10 11 12
000
FTUS43 KMPX 131100
TAFAXN
TAF
KAXN 131130Z 1312/1412 30009KT P6SM SCT080
     FM131500 31017G24KT P6SM FEW060
     FM140200 32007KT P6SM SCT060
     FM140900 31010KT P6SM OVC050=

USA.gov is the U.S. government's official web portal to all federal, state and local government web resources and services.